Terminal Aerodrome Forecast
Issued by NWS Austin/San Antonio, TX

Home | Current Version | Previous Version | Text Only | Print | Product List | Glossary On
Versions: 1 2 3 4 5 6 7 8 9 10 11 12 13 14 15 16 17 18
968
FTUS44 KEWX 260009 AAA
TAFAUS
TAF AMD
KAUS 260009Z 2600/2706 17005KT P6SM SCT040 BKN200
     FM260030 10010KT P6SM VCTS BKN030CB
     FM260115 13006KT P6SM SCT050
     FM261100 VRB02KT P6SM BKN015
     FM261500 VRB04KT P6SM SCT020
     FM261700 13007KT P6SM SCT035=

USA.gov is the U.S. government's official web portal to all federal, state and local government web resources and services.